createdAt,value
2023-04-12T00:00:30.232Z,1002.54
2023-04-12T00:01:30.255Z,1002.49
2023-04-12T00:02:30.396Z,1002.45
2023-04-12T00:03:30.432Z,1002.44
2023-04-12T00:04:30.554Z,1002.38
2023-04-12T00:05:30.347Z,1002.37
2023-04-12T00:06:30.371Z,1002.38
2023-04-12T00:07:30.403Z,1002.35
2023-04-12T00:08:30.425Z,1002.29
2023-04-12T00:09:30.457Z,1002.31
2023-04-12T00:10:30.475Z,1002.32
2023-04-12T00:11:30.526Z,1002.28
2023-04-12T00:12:30.548Z,1002.29
2023-04-12T00:13:30.572Z,1002.26
2023-04-12T00:14:30.588Z,1002.22
2023-04-12T00:15:30.632Z,1002.16
2023-04-12T00:16:30.737Z,1002.17
2023-04-12T00:17:30.746Z,1002.11
2023-04-12T00:18:30.683Z,1002.09
2023-04-12T00:19:30.712Z,1002.16
2023-04-12T00:20:30.756Z,1002.09
2023-04-12T00:21:30.766Z,1002.12
2023-04-12T00:22:31.036Z,1002.09
2023-04-12T00:23:30.814Z,1002.09
2023-04-12T00:24:30.855Z,1002.05
2023-04-12T00:25:30.868Z,1002.06
2023-04-12T00:26:30.895Z,1002.06
2023-04-12T00:27:30.945Z,1002.01
2023-04-12T00:28:30.944Z,1001.97
2023-04-12T00:29:30.976Z,1001.95
2023-04-12T00:30:30.995Z,1001.96
2023-04-12T00:31:31.059Z,1001.95
2023-04-12T00:32:31.081Z,1001.95
2023-04-12T00:33:31.072Z,1001.83
2023-04-12T00:34:31.093Z,1001.83
2023-04-12T00:35:31.176Z,1001.81
2023-04-12T00:36:31.147Z,1001.74
2023-04-12T00:37:31.177Z,1001.80
2023-04-12T00:38:31.198Z,1001.65
2023-04-12T00:39:31.226Z,1001.67
2023-04-12T00:40:31.252Z,1001.67
2023-04-12T00:41:31.278Z,1001.64
2023-04-12T00:42:31.304Z,1001.59
2023-04-12T00:43:31.367Z,1001.60
2023-04-12T00:44:31.354Z,1001.53
2023-04-12T00:45:31.382Z,1001.53
2023-04-12T00:46:31.427Z,1001.55
2023-04-12T00:47:31.455Z,1001.50
2023-04-12T00:48:31.470Z,1001.52
2023-04-12T00:49:31.487Z,1001.55
2023-04-12T00:50:31.507Z,1001.52
2023-04-12T00:51:31.536Z,1001.41
2023-04-12T00:52:31.561Z,1001.45
2023-04-12T00:53:31.588Z,1001.41
2023-04-12T00:54:31.610Z,1001.40
2023-04-12T00:55:31.638Z,1001.37
2023-04-12T00:56:31.662Z,1001.34
2023-04-12T00:57:31.695Z,1001.29
2023-04-12T00:58:31.719Z,1001.28
2023-04-12T00:59:31.769Z,1001.27
2023-04-12T01:00:31.780Z,1001.31
2023-04-12T01:01:31.808Z,1001.30
2023-04-12T01:02:31.925Z,1001.23
2023-04-12T01:03:32.048Z,1001.20
2023-04-12T01:04:31.865Z,1001.15
2023-04-12T01:05:32.092Z,1001.18
2023-04-12T01:06:31.916Z,1001.13
2023-04-12T01:07:31.942Z,1001.17
2023-04-12T01:08:31.966Z,1001.12
2023-04-12T01:09:31.994Z,1001.10
2023-04-12T01:10:32.021Z,1001.08
2023-04-12T01:11:32.071Z,1001.05
2023-04-12T01:12:32.069Z,1001.07
2023-04-12T01:13:32.098Z,1001.01
2023-04-12T01:14:32.116Z,1000.99
2023-04-12T01:15:32.171Z,1000.98
2023-04-12T01:16:32.281Z,1000.93
2023-04-12T01:17:32.274Z,1000.95
2023-04-12T01:18:32.221Z,1000.92
2023-04-12T01:19:32.247Z,1000.93
2023-04-12T01:20:32.479Z,1000.86
2023-04-12T01:21:32.303Z,1000.91
2023-04-12T01:22:32.321Z,1000.83
2023-04-12T01:23:32.359Z,1000.83
2023-04-12T01:24:32.372Z,1000.80
2023-04-12T01:25:32.467Z,1000.82
2023-04-12T01:26:32.466Z,1000.78
2023-04-12T01:27:32.450Z,1000.78
2023-04-12T01:28:32.474Z,1000.76
2023-04-12T01:29:32.502Z,1000.73
2023-04-12T01:30:32.534Z,1000.69
2023-04-12T01:31:32.604Z,1000.69
2023-04-12T01:32:32.607Z,1000.66
2023-04-12T01:33:32.605Z,1000.67
2023-04-12T01:34:32.661Z,1000.65
2023-04-12T01:35:34.597Z,1000.68
2023-04-12T01:36:32.684Z,1000.63
2023-04-12T01:37:32.705Z,1000.58
2023-04-12T01:38:32.728Z,1000.55
2023-04-12T01:39:32.762Z,1000.54
2023-04-12T01:40:32.780Z,1000.52
2023-04-12T01:41:32.809Z,1000.53
2023-04-12T01:42:32.835Z,1000.50
2023-04-12T01:43:32.858Z,1000.46
2023-04-12T01:44:32.884Z,1000.43
2023-04-12T01:45:32.919Z,1000.40
2023-04-12T01:46:32.941Z,1000.44
2023-04-12T01:47:32.980Z,1000.37
2023-04-12T01:48:32.985Z,1000.41
2023-04-12T01:49:33.021Z,1000.36
2023-04-12T01:50:33.284Z,1000.33
2023-04-12T01:51:33.064Z,1000.30
2023-04-12T01:52:33.085Z,1000.21
2023-04-12T01:53:33.113Z,1000.11
2023-04-12T01:54:33.136Z,1000.11
2023-04-12T01:55:33.164Z,1000.08
2023-04-12T01:56:33.192Z,1000.02
2023-04-12T01:57:33.216Z,1000.00
2023-04-12T01:58:33.239Z,1000.05
2023-04-12T01:59:33.271Z,999.96
2023-04-12T02:00:33.291Z,999.97
2023-04-12T02:01:33.477Z,999.98
2023-04-12T02:02:33.465Z,999.92
2023-04-12T02:03:33.446Z,999.86
2023-04-12T02:04:33.402Z,999.87
2023-04-12T02:05:33.417Z,999.90
2023-04-12T02:06:33.447Z,999.86
2023-04-12T02:07:33.477Z,999.88
2023-04-12T02:08:33.490Z,999.82
2023-04-12T02:09:33.523Z,999.79
2023-04-12T02:10:33.542Z,999.80
2023-04-12T02:11:33.572Z,999.74
2023-04-12T02:12:33.596Z,999.76
2023-04-12T02:13:33.617Z,999.62
2023-04-12T02:14:33.673Z,999.59
2023-04-12T02:15:33.664Z,999.58
2023-04-12T02:16:33.716Z,999.55
2023-04-12T02:17:33.786Z,999.56
2023-04-12T02:18:33.739Z,999.48
2023-04-12T02:19:33.788Z,999.47
2023-04-12T02:20:33.787Z,999.46
2023-04-12T02:21:33.818Z,999.40
2023-04-12T02:22:33.838Z,999.40
2023-04-12T02:23:33.862Z,999.36
2023-04-12T02:24:33.892Z,999.36
2023-04-12T02:25:33.916Z,999.31
2023-04-12T02:26:33.941Z,999.35
2023-04-12T02:27:33.966Z,999.39
2023-04-12T02:28:33.991Z,999.45
2023-04-12T02:29:34.021Z,999.44
2023-04-12T02:30:34.055Z,999.41
2023-04-12T02:31:34.066Z,999.41
2023-04-12T02:32:34.124Z,999.40
2023-04-12T02:33:34.116Z,999.40
2023-04-12T02:34:34.213Z,999.35
2023-04-12T02:35:34.216Z,999.29
2023-04-12T02:36:34.190Z,999.26
2023-04-12T02:37:34.215Z,999.27
2023-04-12T02:38:34.241Z,999.17
2023-04-12T02:39:34.269Z,999.16
2023-04-12T02:40:34.296Z,999.11
2023-04-12T02:41:34.320Z,999.11
2023-04-12T02:42:34.359Z,999.14
2023-04-12T02:43:34.369Z,999.11
2023-04-12T02:44:34.391Z,999.12
2023-04-12T02:45:34.415Z,999.07
2023-04-12T02:46:34.522Z,999.12
2023-04-12T02:47:34.521Z,999.08
2023-04-12T02:48:34.488Z,999.03
2023-04-12T02:49:34.515Z,998.99
2023-04-12T02:50:34.539Z,998.95
2023-04-12T02:51:34.583Z,998.89
2023-04-12T02:52:34.589Z,998.85
2023-04-12T02:53:34.616Z,998.81
2023-04-12T02:54:34.646Z,998.77
2023-04-12T02:55:34.674Z,998.76
2023-04-12T02:56:34.693Z,998.67
2023-04-12T02:57:34.722Z,998.67
2023-04-12T02:58:34.739Z,998.57
2023-04-12T02:59:34.770Z,998.55
2023-04-12T03:00:34.789Z,998.52
2023-04-12T03:01:34.875Z,998.53
2023-04-12T03:02:34.916Z,998.43
2023-04-12T03:03:34.996Z,998.46
2023-04-12T03:04:34.887Z,998.51
2023-04-12T03:05:34.914Z,998.46
2023-04-12T03:06:34.936Z,998.45
2023-04-12T03:07:34.981Z,998.42
2023-04-12T03:08:34.988Z,998.41
2023-04-12T03:09:35.055Z,998.39
2023-04-12T03:10:35.040Z,998.34
2023-04-12T03:11:35.061Z,998.29
2023-04-12T03:12:35.087Z,998.24
2023-04-12T03:13:35.120Z,998.26
2023-04-12T03:14:35.138Z,998.26
2023-04-12T03:15:35.226Z,998.23
2023-04-12T03:16:35.183Z,998.20
2023-04-12T03:17:35.242Z,998.19
2023-04-12T03:18:35.241Z,998.16
2023-04-12T03:19:35.276Z,998.14
2023-04-12T03:20:35.296Z,998.09
2023-04-12T03:21:35.313Z,998.08
2023-04-12T03:22:35.336Z,998.07
2023-04-12T03:23:35.390Z,998.04
2023-04-12T03:24:35.383Z,997.97
2023-04-12T03:25:35.410Z,997.95
2023-04-12T03:26:35.454Z,997.88
2023-04-12T03:27:35.463Z,997.89
2023-04-12T03:28:35.489Z,997.91
2023-04-12T03:29:35.508Z,997.85
2023-04-12T03:30:35.532Z,997.84
2023-04-12T03:31:35.722Z,997.80
2023-04-12T03:32:35.645Z,997.78
2023-04-12T03:33:35.606Z,997.74
2023-04-12T03:34:35.631Z,997.66
2023-04-12T03:35:35.678Z,997.66
2023-04-12T03:36:35.686Z,997.62
2023-04-12T03:37:35.820Z,997.64
2023-04-12T03:38:35.734Z,997.65
2023-04-12T03:39:35.775Z,997.60
2023-04-12T03:40:35.788Z,997.56
2023-04-12T03:41:35.941Z,997.53
2023-04-12T03:42:35.833Z,997.53
2023-04-12T03:43:35.856Z,997.46
2023-04-12T03:44:35.877Z,997.41
2023-04-12T03:45:35.905Z,997.35
2023-04-12T03:46:35.962Z,997.29
2023-04-12T03:47:35.967Z,997.31
2023-04-12T03:48:35.978Z,997.25
2023-04-12T03:49:36.009Z,997.30
2023-04-12T03:50:36.029Z,997.30
2023-04-12T03:51:36.055Z,997.22
2023-04-12T03:52:36.079Z,997.20
2023-04-12T03:53:36.105Z,997.24
2023-04-12T03:54:36.128Z,997.20
2023-04-12T03:55:36.225Z,997.23
2023-04-12T03:56:36.182Z,997.20
2023-04-12T03:57:36.200Z,997.19
2023-04-12T03:58:36.250Z,997.15
2023-04-12T03:59:36.250Z,997.13
2023-04-12T04:00:36.274Z,997.09
2023-04-12T04:01:36.303Z,997.06
2023-04-12T04:02:36.455Z,996.91
2023-04-12T04:03:36.526Z,996.99
2023-04-12T04:04:36.406Z,996.94
2023-04-12T04:05:36.399Z,996.97
2023-04-12T04:06:36.430Z,996.91
2023-04-12T04:07:36.441Z,996.86
2023-04-12T04:08:36.469Z,996.85
2023-04-12T04:09:36.494Z,996.78
2023-04-12T04:10:36.521Z,996.75
2023-04-12T04:11:36.607Z,996.68
2023-04-12T04:12:36.574Z,996.62
2023-04-12T04:13:36.594Z,996.64
2023-04-12T04:14:36.616Z,996.60
2023-04-12T04:15:36.641Z,996.58
2023-04-12T04:16:36.695Z,996.54
2023-04-12T04:17:37.016Z,996.59
2023-04-12T04:18:36.716Z,996.58
2023-04-12T04:19:36.742Z,996.55
2023-04-12T04:20:36.769Z,996.53
2023-04-12T04:21:36.789Z,996.54
2023-04-12T04:22:36.825Z,996.52
2023-04-12T04:23:36.837Z,996.49
2023-04-12T04:24:36.864Z,996.46
2023-04-12T04:25:36.887Z,996.44
2023-04-12T04:26:36.913Z,996.43
2023-04-12T04:27:36.957Z,996.37
2023-04-12T04:28:36.965Z,996.36
2023-04-12T04:29:37.002Z,996.35
2023-04-12T04:30:37.014Z,996.33
2023-04-12T04:31:37.074Z,996.31
2023-04-12T04:32:37.153Z,996.27
2023-04-12T04:33:37.092Z,996.26
2023-04-12T04:34:37.121Z,996.23
2023-04-12T04:35:37.184Z,996.25
2023-04-12T04:36:37.163Z,996.26
2023-04-12T04:37:37.208Z,996.25
2023-04-12T04:38:37.223Z,996.20
2023-04-12T04:39:37.241Z,996.16
2023-04-12T04:40:37.268Z,996.11
2023-04-12T04:41:37.290Z,996.12
2023-04-12T04:42:37.315Z,996.10
2023-04-12T04:43:37.357Z,996.14
2023-04-12T04:44:37.364Z,996.02
2023-04-12T04:45:37.428Z,996.12
2023-04-12T04:46:37.413Z,996.14
2023-04-12T04:47:37.457Z,996.14
2023-04-12T04:48:37.465Z,996.10
2023-04-12T04:49:37.489Z,996.13
2023-04-12T04:50:37.519Z,996.12
2023-04-12T04:51:37.539Z,996.14
2023-04-12T04:52:37.585Z,996.08
2023-04-12T04:53:37.589Z,996.17
2023-04-12T04:54:37.616Z,996.09
2023-04-12T04:55:37.642Z,996.13
2023-04-12T04:56:37.666Z,996.05
2023-04-12T04:57:37.689Z,996.07
2023-04-12T04:58:37.715Z,996.01
2023-04-12T04:59:37.757Z,996.06
2023-04-12T05:00:37.803Z,996.02
2023-04-12T05:01:37.920Z,996.04
2023-04-12T05:02:37.937Z,996.04
2023-04-12T05:03:38.011Z,996.00
2023-04-12T05:04:37.871Z,996.05
2023-04-12T05:05:37.894Z,995.97
2023-04-12T05:06:37.910Z,996.00
2023-04-12T05:07:37.932Z,996.03
2023-04-12T05:08:37.962Z,995.98
2023-04-12T05:09:37.992Z,995.99
2023-04-12T05:10:38.009Z,995.93
2023-04-12T05:11:38.036Z,995.91
2023-04-12T05:12:38.058Z,995.86
2023-04-12T05:13:38.088Z,995.90
2023-04-12T05:14:47.369Z,996.00
2023-04-12T05:15:38.162Z,995.96
2023-04-12T05:16:38.205Z,995.95
2023-04-12T05:17:38.272Z,995.95
2023-04-12T05:18:38.217Z,995.82
2023-04-12T05:19:38.232Z,995.91
2023-04-12T05:20:38.253Z,995.87
2023-04-12T05:21:38.279Z,995.78
2023-04-12T05:22:38.309Z,995.83
2023-04-12T05:23:38.344Z,995.77
2023-04-12T05:24:38.361Z,995.71
2023-04-12T05:25:38.385Z,995.65
2023-04-12T05:26:38.408Z,995.63
2023-04-12T05:27:38.428Z,995.63
2023-04-12T05:28:38.452Z,995.64
2023-04-12T05:29:38.479Z,995.64
2023-04-12T05:30:38.530Z,995.63
2023-04-12T05:31:38.590Z,995.58
2023-04-12T05:32:38.621Z,995.59
2023-04-12T05:33:38.582Z,995.55
2023-04-12T05:34:38.603Z,995.53
2023-04-12T05:35:38.658Z,995.48
2023-04-12T05:36:38.660Z,995.47
2023-04-12T05:37:38.689Z,995.45
2023-04-12T05:38:38.706Z,995.42
2023-04-12T05:39:38.732Z,995.41
2023-04-12T05:40:38.756Z,995.41
2023-04-12T05:41:38.780Z,995.37
2023-04-12T05:42:38.811Z,995.37
2023-04-12T05:43:38.829Z,995.35
2023-04-12T05:44:38.862Z,995.38
2023-04-12T05:45:38.880Z,995.33
2023-04-12T05:46:38.984Z,995.30
2023-04-12T05:47:39.145Z,995.30
2023-04-12T05:48:38.954Z,995.26
2023-04-12T05:49:38.977Z,995.33
2023-04-12T05:50:39.001Z,995.29
2023-04-12T05:51:41.684Z,995.30
2023-04-12T05:52:39.053Z,995.27
2023-04-12T05:53:39.081Z,995.23
2023-04-12T05:54:39.112Z,995.27
2023-04-12T05:55:39.127Z,995.23
2023-04-12T05:56:39.160Z,995.24
2023-04-12T05:57:39.190Z,995.23
2023-04-12T05:58:39.213Z,995.26
2023-04-12T05:59:39.235Z,995.19
2023-04-12T06:00:39.261Z,995.22
2023-04-12T06:01:39.310Z,995.25
2023-04-12T06:02:39.439Z,995.20
2023-04-12T06:03:39.647Z,995.23
2023-04-12T06:04:49.998Z,995.17
2023-04-12T06:05:39.576Z,995.21
2023-04-12T06:06:39.406Z,995.19
2023-04-12T06:07:39.435Z,995.15
2023-04-12T06:08:39.465Z,995.10
2023-04-12T06:09:39.479Z,995.16
2023-04-12T06:10:39.505Z,995.16
2023-04-12T06:11:39.528Z,995.09
2023-04-12T06:12:39.555Z,995.07
2023-04-12T06:13:39.579Z,995.09
2023-04-12T06:14:39.619Z,995.08
2023-04-12T06:15:39.658Z,995.10
2023-04-12T06:16:41.820Z,995.07
2023-04-12T06:17:39.701Z,995.06
2023-04-12T06:18:39.710Z,995.05
2023-04-12T06:19:39.746Z,995.02
2023-04-12T06:20:39.755Z,995.00
2023-04-12T06:21:39.787Z,995.03
2023-04-12T06:22:39.805Z,995.04
2023-04-12T06:23:39.831Z,994.97
2023-04-12T06:24:39.855Z,994.96
2023-04-12T06:25:39.881Z,994.91
2023-04-12T06:26:40.415Z,994.88
2023-04-12T06:27:39.933Z,994.87
2023-04-12T06:28:39.956Z,994.84
2023-04-12T06:29:39.978Z,994.92
2023-04-12T06:30:40.010Z,994.86
2023-04-12T06:31:40.092Z,994.85
2023-04-12T06:32:40.069Z,994.88
2023-04-12T06:33:40.072Z,994.87
2023-04-12T06:34:40.096Z,994.77
2023-04-12T06:35:40.182Z,994.77
2023-04-12T06:36:40.179Z,994.75
2023-04-12T06:37:40.171Z,994.72
2023-04-12T06:38:40.205Z,994.72
2023-04-12T06:39:40.216Z,994.66
2023-04-12T06:40:40.245Z,994.71
2023-04-12T06:41:40.268Z,994.59
2023-04-12T06:42:40.447Z,994.64
2023-04-12T06:43:40.339Z,994.58
2023-04-12T06:44:40.349Z,994.53
2023-04-12T06:45:40.368Z,994.53
2023-04-12T06:46:40.409Z,994.54
2023-04-12T06:47:40.455Z,994.54
2023-04-12T06:48:41.346Z,994.52
2023-04-12T06:49:40.469Z,994.60
2023-04-12T06:50:40.490Z,994.54
2023-04-12T06:51:40.595Z,994.52
2023-04-12T06:52:40.541Z,994.44
2023-04-12T06:53:40.570Z,994.44
2023-04-12T06:54:40.592Z,994.38
2023-04-12T06:55:40.624Z,994.43
2023-04-12T06:56:40.642Z,994.38
2023-04-12T06:57:40.669Z,994.35
2023-04-12T06:58:40.689Z,994.31
2023-04-12T06:59:40.714Z,994.26
2023-04-12T07:00:40.989Z,994.27
2023-04-12T07:01:41.920Z,994.21
2023-04-12T07:02:40.947Z,994.26
2023-04-12T07:03:40.898Z,994.18
2023-04-12T07:04:40.864Z,994.21
2023-04-12T07:05:40.868Z,994.18
2023-04-12T07:06:40.896Z,994.15
2023-04-12T07:07:40.961Z,994.24
2023-04-12T07:08:40.950Z,994.18
2023-04-12T07:09:40.969Z,994.21
2023-04-12T07:10:41.006Z,994.17
2023-04-12T07:11:41.026Z,994.07
2023-04-12T07:12:41.047Z,994.04
2023-04-12T07:13:41.069Z,994.07
2023-04-12T07:14:42.405Z,994.09
2023-04-12T07:15:41.118Z,994.10
2023-04-12T07:16:41.207Z,994.06
2023-04-12T07:17:41.204Z,994.04
2023-04-12T07:18:41.195Z,993.97
2023-04-12T07:19:41.222Z,993.93
2023-04-12T07:20:41.249Z,993.90
2023-04-12T07:21:41.273Z,993.90
2023-04-12T07:22:41.306Z,993.93
2023-04-12T07:23:41.406Z,993.89
2023-04-12T07:24:41.349Z,993.88
2023-04-12T07:25:41.383Z,993.89
2023-04-12T07:26:41.407Z,993.89
2023-04-12T07:27:41.425Z,993.88
2023-04-12T07:28:41.457Z,993.88
2023-04-12T07:29:41.477Z,993.78
2023-04-12T07:30:41.501Z,993.81
2023-04-12T07:31:41.544Z,993.79
2023-04-12T07:32:41.638Z,993.78
2023-04-12T07:33:43.365Z,993.77
2023-04-12T07:34:41.671Z,993.75
2023-04-12T07:35:41.665Z,993.63
2023-04-12T07:36:41.655Z,993.66
2023-04-12T07:37:41.682Z,993.65
2023-04-12T07:38:41.708Z,993.61
2023-04-12T07:39:41.873Z,993.60
2023-04-12T07:40:41.760Z,993.62
2023-04-12T07:41:41.787Z,993.53
2023-04-12T07:42:41.809Z,993.53
2023-04-12T07:43:41.835Z,993.45
2023-04-12T07:44:41.860Z,993.49
2023-04-12T07:45:41.916Z,993.47
2023-04-12T07:46:42.720Z,993.46
2023-04-12T07:47:41.961Z,993.42
2023-04-12T07:48:41.963Z,993.40
2023-04-12T07:49:41.989Z,993.43
2023-04-12T07:50:42.013Z,993.43
2023-04-12T07:51:42.037Z,993.40
2023-04-12T07:52:42.088Z,993.32
2023-04-12T07:53:42.114Z,993.29
2023-04-12T07:54:42.120Z,993.33
2023-04-12T07:55:42.173Z,993.30
2023-04-12T07:56:42.174Z,993.35
2023-04-12T07:57:42.193Z,993.40
2023-04-12T07:58:42.220Z,993.38
2023-04-12T07:59:42.248Z,993.35
2023-04-12T08:00:42.270Z,993.32
2023-04-12T08:01:42.322Z,993.29
2023-04-12T08:02:42.374Z,993.31
2023-04-12T08:03:42.537Z,993.31
2023-04-12T08:04:42.375Z,993.27
2023-04-12T08:05:42.448Z,993.26
2023-04-12T08:06:42.428Z,993.32
2023-04-12T08:07:42.452Z,993.31
2023-04-12T08:08:42.496Z,993.36
2023-04-12T08:09:42.501Z,993.26
2023-04-12T08:10:42.527Z,993.28
2023-04-12T08:11:42.604Z,993.26
2023-04-12T08:12:42.582Z,993.25
2023-04-12T08:13:42.605Z,993.31
2023-04-12T08:14:42.636Z,993.32
2023-04-12T08:15:42.682Z,993.25
2023-04-12T08:16:42.686Z,993.27
2023-04-12T08:17:42.751Z,993.23
2023-04-12T08:18:42.745Z,993.19
2023-04-12T08:19:42.763Z,993.19
2023-04-12T08:20:42.792Z,993.17
2023-04-12T08:21:42.813Z,993.17
2023-04-12T08:22:42.840Z,993.20
2023-04-12T08:23:42.868Z,993.21
2023-04-12T08:24:42.889Z,993.19
2023-04-12T08:25:42.919Z,993.20
2023-04-12T08:26:42.950Z,993.16
2023-04-12T08:27:43.004Z,993.21
2023-04-12T08:28:42.991Z,993.25
2023-04-12T08:29:43.032Z,993.24
2023-04-12T08:30:43.042Z,993.28
2023-04-12T08:31:43.215Z,993.23
2023-04-12T08:32:43.122Z,993.20
2023-04-12T08:33:43.125Z,993.13
2023-04-12T08:34:44.837Z,993.10
2023-04-12T08:35:43.204Z,993.07
2023-04-12T08:36:43.199Z,993.12
2023-04-12T08:37:43.229Z,993.11
2023-04-12T08:38:46.038Z,993.02
2023-04-12T08:39:43.280Z,993.04
2023-04-12T08:40:43.312Z,993.03
2023-04-12T08:41:43.336Z,992.99
2023-04-12T08:42:43.383Z,993.02
2023-04-12T08:43:43.413Z,993.02
2023-04-12T08:44:43.409Z,993.01
2023-04-12T08:45:43.439Z,993.02
2023-04-12T08:46:43.512Z,993.09
2023-04-12T08:47:43.528Z,993.08
2023-04-12T08:48:43.527Z,993.03
2023-04-12T08:49:43.543Z,993.04
2023-04-12T08:50:43.570Z,993.11
2023-04-12T08:51:43.596Z,993.08
2023-04-12T08:52:43.621Z,993.07
2023-04-12T08:53:43.663Z,993.07
2023-04-12T08:54:43.677Z,993.11
2023-04-12T08:55:43.710Z,993.07
2023-04-12T08:56:43.737Z,993.08
2023-04-12T08:57:43.762Z,993.04
2023-04-12T08:58:43.787Z,993.02
2023-04-12T08:59:43.839Z,993.01
2023-04-12T09:00:43.833Z,993.03
2023-04-12T09:01:43.904Z,992.98
2023-04-12T09:02:44.118Z,992.96
2023-04-12T09:03:44.152Z,993.02
2023-04-12T09:04:43.981Z,993.01
2023-04-12T09:05:43.995Z,993.01
2023-04-12T09:06:43.994Z,992.96
2023-04-12T09:07:44.028Z,992.96
2023-04-12T09:08:44.049Z,992.90
2023-04-12T09:09:44.099Z,992.90
2023-04-12T09:10:44.100Z,992.89
2023-04-12T09:11:44.126Z,992.92
2023-04-12T09:12:44.155Z,992.86
2023-04-12T09:13:44.194Z,992.83
2023-04-12T09:14:44.210Z,992.78
2023-04-12T09:15:44.321Z,992.77
2023-04-12T09:16:44.312Z,992.80
2023-04-12T09:17:44.347Z,992.82
2023-04-12T09:18:44.315Z,992.79
2023-04-12T09:19:44.341Z,992.83
2023-04-12T09:20:44.372Z,992.79
2023-04-12T09:21:44.404Z,992.83
2023-04-12T09:22:44.519Z,992.81
2023-04-12T09:23:44.459Z,992.82
2023-04-12T09:24:44.578Z,992.81
2023-04-12T09:25:44.517Z,992.74
2023-04-12T09:26:44.537Z,992.75
2023-04-12T09:27:44.556Z,992.73
2023-04-12T09:28:44.597Z,992.70
2023-04-12T09:29:44.627Z,992.70
2023-04-12T09:30:44.648Z,992.75
2023-04-12T09:31:44.740Z,992.72
2023-04-12T09:32:44.773Z,992.72
2023-04-12T09:33:44.718Z,992.65
2023-04-12T09:34:44.741Z,992.74
2023-04-12T09:35:44.924Z,992.72
2023-04-12T09:36:44.796Z,992.68
2023-04-12T09:37:44.844Z,992.64
2023-04-12T09:38:44.918Z,992.68
2023-04-12T09:39:44.899Z,992.67
2023-04-12T09:40:44.910Z,992.71
2023-04-12T09:41:44.936Z,992.68
2023-04-12T09:42:44.957Z,992.71
2023-04-12T09:43:45.000Z,992.71
2023-04-12T09:44:45.013Z,992.72
2023-04-12T09:45:45.101Z,992.73
2023-04-12T09:46:47.662Z,992.74
2023-04-12T09:47:45.220Z,992.72
2023-04-12T09:48:45.119Z,992.69
2023-04-12T09:49:45.195Z,992.68
2023-04-12T09:50:45.172Z,992.69
2023-04-12T09:51:45.204Z,992.64
2023-04-12T09:52:45.233Z,992.68
2023-04-12T09:53:45.264Z,992.63
2023-04-12T09:54:45.279Z,992.67
2023-04-12T09:55:45.334Z,992.64
2023-04-12T09:56:45.335Z,992.63
2023-04-12T09:57:45.406Z,992.63
2023-04-12T09:58:45.474Z,992.64
2023-04-12T09:59:45.416Z,992.61
2023-04-12T10:00:45.441Z,992.63
2023-04-12T10:01:45.555Z,992.66
2023-04-12T10:02:46.909Z,992.60
2023-04-12T10:03:45.749Z,992.58
2023-04-12T10:04:45.706Z,992.55
2023-04-12T10:05:45.587Z,992.54
2023-04-12T10:06:45.607Z,992.48
2023-04-12T10:07:45.634Z,992.56
2023-04-12T10:08:45.661Z,992.50
2023-04-12T10:09:45.686Z,992.52
2023-04-12T10:10:45.726Z,992.49
2023-04-12T10:11:45.740Z,992.46
2023-04-12T10:12:45.789Z,992.46
2023-04-12T10:13:45.795Z,992.45
2023-04-12T10:14:45.819Z,992.45
2023-04-12T10:15:45.886Z,992.43
2023-04-12T10:16:45.961Z,992.44
2023-04-12T10:17:45.950Z,992.40
2023-04-12T10:18:45.938Z,992.41
2023-04-12T10:19:45.974Z,992.37
2023-04-12T10:20:46.010Z,992.33
2023-04-12T10:21:46.035Z,992.32
2023-04-12T10:22:46.105Z,992.32
2023-04-12T10:23:46.103Z,992.49
2023-04-12T10:24:46.126Z,992.33
2023-04-12T10:25:46.129Z,992.27
2023-04-12T10:26:46.179Z,992.18
2023-04-12T10:27:46.178Z,992.20
2023-04-12T10:28:46.220Z,992.16
2023-04-12T10:29:46.236Z,992.27
2023-04-12T10:30:46.273Z,992.20
2023-04-12T10:31:46.300Z,992.22
2023-04-12T10:32:46.376Z,992.15
2023-04-12T10:33:46.352Z,992.15
2023-04-12T10:34:46.404Z,992.17
2023-04-12T10:35:46.484Z,992.09
2023-04-12T10:36:46.430Z,992.15
2023-04-12T10:37:46.479Z,992.14
2023-04-12T10:38:46.485Z,992.09
2023-04-12T10:39:46.521Z,992.09
2023-04-12T10:40:46.549Z,992.12
2023-04-12T10:41:49.193Z,992.10
2023-04-12T10:42:46.621Z,992.09
2023-04-12T10:43:46.685Z,992.10
2023-04-12T10:44:46.662Z,992.12
2023-04-12T10:45:46.698Z,992.10
2023-04-12T10:46:46.801Z,992.13
2023-04-12T10:47:46.763Z,992.12
2023-04-12T10:48:46.761Z,992.11
2023-04-12T10:49:46.796Z,992.12
2023-04-12T10:50:46.822Z,992.11
2023-04-12T10:51:48.408Z,992.09
2023-04-12T10:52:46.877Z,992.09
2023-04-12T10:53:46.969Z,992.13
2023-04-12T10:54:46.934Z,992.13
2023-04-12T10:55:46.981Z,992.13
2023-04-12T10:56:47.006Z,992.07
2023-04-12T10:57:47.067Z,992.11
2023-04-12T10:58:47.069Z,992.15
2023-04-12T10:59:47.888Z,992.13
2023-04-12T11:00:47.180Z,992.19
2023-04-12T11:01:47.173Z,992.23
2023-04-12T11:02:47.237Z,992.26
2023-04-12T11:03:47.274Z,992.30
2023-04-12T11:04:47.345Z,992.27
2023-04-12T11:05:47.394Z,992.28
2023-04-12T11:06:47.285Z,992.30
2023-04-12T11:07:47.374Z,992.34
2023-04-12T11:08:47.470Z,992.41
2023-04-12T11:09:47.366Z,992.42
2023-04-12T11:10:47.369Z,992.46
2023-04-12T11:11:47.405Z,992.51
2023-04-12T11:12:47.439Z,992.51
2023-04-12T11:13:47.463Z,992.61
2023-04-12T11:14:47.522Z,992.62
2023-04-12T11:15:47.517Z,992.61
2023-04-12T11:16:47.574Z,992.62
2023-04-12T11:17:47.626Z,992.65
2023-04-12T11:18:47.646Z,992.61
2023-04-12T11:19:47.617Z,992.51
2023-04-12T11:20:47.655Z,992.50
2023-04-12T11:21:47.701Z,992.59
2023-04-12T11:22:47.695Z,992.51
2023-04-12T11:23:47.779Z,992.56
2023-04-12T11:24:47.796Z,992.59
2023-04-12T11:25:47.799Z,992.61
2023-04-12T11:26:47.804Z,992.61
2023-04-12T11:27:47.833Z,992.58
2023-04-12T11:28:47.859Z,992.65
2023-04-12T11:29:47.889Z,992.64
2023-04-12T11:30:47.913Z,992.53
2023-04-12T11:31:47.958Z,992.57
2023-04-12T11:32:48.002Z,992.53
2023-04-12T11:33:47.993Z,992.58
2023-04-12T11:34:48.032Z,992.57
2023-04-12T11:35:48.057Z,992.59
2023-04-12T11:36:48.077Z,992.49
2023-04-12T11:37:48.117Z,992.61
2023-04-12T11:38:48.135Z,992.58
2023-04-12T11:39:48.187Z,992.57
2023-04-12T11:40:48.191Z,992.59
2023-04-12T11:41:48.220Z,992.59
2023-04-12T11:42:48.241Z,992.57
2023-04-12T11:43:48.274Z,992.60
2023-04-12T11:44:56.822Z,992.66
2023-04-12T11:45:48.357Z,992.61
2023-04-12T11:46:48.353Z,992.59
2023-04-12T11:47:48.397Z,992.66
2023-04-12T11:48:48.407Z,992.60
2023-04-12T11:49:48.439Z,992.67
2023-04-12T11:50:54.266Z,992.63
2023-04-12T11:51:49.637Z,992.61
2023-04-12T11:52:48.522Z,992.61
2023-04-12T11:53:48.550Z,992.60
2023-04-12T11:54:48.582Z,992.70
2023-04-12T11:55:48.633Z,992.69
2023-04-12T11:56:48.639Z,992.69
2023-04-12T11:57:48.665Z,992.73
2023-04-12T11:58:48.690Z,992.66
2023-04-12T11:59:48.718Z,992.68
2023-04-12T12:00:48.747Z,992.59
2023-04-12T12:01:48.796Z,992.65
2023-04-12T12:03:03.872Z,992.60
2023-04-12T12:03:49.091Z,992.59
2023-04-12T12:04:48.988Z,992.61
2023-04-12T12:05:49.217Z,992.60
2023-04-12T12:06:49.194Z,992.64
2023-04-12T12:07:48.950Z,992.66
2023-04-12T12:08:48.973Z,992.64
2023-04-12T12:09:49.004Z,992.59
2023-04-12T12:11:49.148Z,992.64
2023-04-12T12:12:49.089Z,992.64
2023-04-12T12:13:49.156Z,992.65
2023-04-12T12:14:49.143Z,992.64
2023-04-12T12:15:49.200Z,992.64
2023-04-12T12:16:49.203Z,992.64
2023-04-12T12:17:49.248Z,992.67
2023-04-12T12:18:52.361Z,992.68
2023-04-12T12:19:49.312Z,992.72
2023-04-12T12:20:49.324Z,992.70
2023-04-12T12:21:49.353Z,992.67
2023-04-12T12:22:49.377Z,992.66
2023-04-12T12:23:49.404Z,992.60
2023-04-12T12:24:49.433Z,992.64
2023-04-12T12:25:49.462Z,992.63